• Join FlightAware (Why Join?)
  • Login
  • US Flag 
05:07PM EDT


 

Airport Tracker/Info


-or-


 

Live Flight TrackerFlight Track Log ✈ N363SR ✈ 21-Jun-2013 ✈ KLBF - KJAC

Flight Track Log - Related Links

Times and Time Zones

All times are in EDT time to prevent confusion due to time zone crossing. See the N363SR flight status page for this flight to view local times or setup timezone preferences in your user account.

Time Position Orientation Groundspeed Altitude Reporting Facility
EDT Latitude Longitude Course Direction KTS MPH feet Rate Location/Type
04:21PM 41.1489 -100.7261 270° West 120 138 4,800  Level Denver Center
04:22PM 41.1167 -101.0140 270° West  Level FlightAware Approximate
04:22PM 41.1492 -100.7694 271° West 122 140 5,300  Level Denver Center
04:23PM 41.1167 -101.0692 270° West  Level FlightAware Approximate
04:23PM 41.1467 -100.8233 266° West 128 147 5,900  Level Denver Center
04:24PM 41.1167 -101.1243 270° West  Level FlightAware Approximate
04:24PM 41.1475 -100.8711 271° West 132 152 6,400  Level Denver Center
04:25PM 41.1167 -101.1794 270° West  Level FlightAware Approximate
04:25PM 41.1464 -100.9272 269° West 135 155 6,900  Level Denver Center
04:26PM 41.1167 -101.2345 270° West  Level FlightAware Approximate
04:26PM 41.1450 -100.9739 268° West 134 154 7,400  Level Denver Center
04:27PM 41.1447 -101.0278 270° West 133 153 7,900 360 Climbing Denver Center
04:28PM 41.1436 -101.0744 268° West 132 152 8,200 300 Climbing Denver Center
04:29PM 41.1431 -101.1303 269° West 134 154 8,600 300 Climbing Denver Center
04:30PM 41.1453 -101.1781 274° West 136 157 8,900 300 Climbing Denver Center
04:31PM 41.1675 -101.2275 301° West 139 160 9,300 300 Climbing Denver Center
04:32PM 41.1825 -101.2719 294° West 137 158 9,600 240 Climbing Denver Center
04:33PM 41.1989 -101.3236 293° West 137 158 9,900 240 Climbing Denver Center
04:34PM 41.2133 -101.3675 294° West 137 158 10,200 300 Climbing Denver Center
04:35PM 41.2317 -101.4181 296° West 136 157 10,600 240 Climbing Denver Center
04:36PM 41.2436 -101.4550 293° West 136 157 10,800 240 Climbing Denver Center
04:37PM 41.2633 -101.5139 294° West 136 157 11,200 300 Climbing Denver Center
04:38PM 41.2783 -101.5578 294° West 136 157 11,500 240 Climbing Denver Center
04:39PM 41.2925 -101.6019 293° West 136 157 11,800 240 Climbing Denver Center
04:40PM 41.3103 -101.6528 295° West 135 155 12,000 60 Climbing Denver Center
04:41PM 41.3256 -101.6983 294° West 139 160 12,000  Level Denver Center
04:42PM 41.3442 -101.7564 293° West 152 175 12,000  Level Denver Center
04:43PM 41.3606 -101.8058 294° West 153 176 12,000  Level Denver Center
04:44PM 41.3808 -101.8658 294° West 157 181 12,000  Level Denver Center
04:45PM 41.3975 -101.9172 293° West 158 182 12,000  Level Denver Center
04:46PM 41.4169 -101.9769 293° West 158 182 12,000  Level Denver Center
04:47PM 41.4369 -102.0275 298° West 161 185 12,000  Level Denver Center
04:48PM 41.4619 -102.0861 300° West 162 186 12,000  Level Denver Center
04:49PM 41.4933 -102.1289 314° West 166 191 12,000  Level Denver Center
04:50PM 41.5250 -102.1714 315° West 168 193 12,000  Level Denver Center
04:52PM 41.5597 -102.2214 313° West 166 191 12,000  Level Denver Center
04:53PM 41.5894 -102.2644 313° West 164 189 12,000  Level Denver Center
04:54PM 41.6247 -102.3136 314° West 165 190 12,000  Level Denver Center
04:55PM 41.6547 -102.3547 314° West 163 188 12,000  Level Denver Center
04:56PM 41.6908 -102.4025 315° West 162 186 12,000  Level Denver Center
04:57PM 41.7206 -102.4467 312° West 166 191 12,000  Level Denver Center
04:58PM 41.7533 -102.4975 311° West 163 188 12,000  Level Denver Center
04:59PM 41.7825 -102.5417 312° West 164 189 12,000  Level Denver Center
05:00PM 41.8153 -102.5900 312° West 161 185 12,000  Level Denver Center
05:02PM 41.8567 -102.6911 299° West 149 171 12,000  Level Denver Center
05:03PM 41.8728 -102.7378 295° West 147 169 12,000  Level Denver Center
05:04PM 41.8900 -102.7883 295° West 153 176 12,000  Level Denver Center
05:05PM 41.9103 -102.8469 295° West 155 178 12,000  Level Denver Center
05:06PM 41.9303 -102.8992 297° West 158 182 12,000  Level Denver Center
05:07PM 41.9492 -102.9572 294° West 155 178 12,000  Level Denver Center
05:08PM 41.9675 -103.0056 297° West 153 176 12,000  Level Denver Center
05:09PM 41.9878 -103.0653 295° West 156 180 12,000  Level Denver Center
05:10PM 42.0053 -103.1144 296° West 154 177 12,000  Level Denver Center
05:11PM 42.0228 -103.1642 295° West 153 176 12,000  Level Denver Center
05:12PM 42.0372 -103.2408 284° West 148 170 12,000  Level Denver Center
05:13PM 42.0356 -103.2928 268° West 144 166 12,000 -60 Level Denver Center
05:14PM 42.0361 -103.3514 271° West 142 163 11,900  Descending Denver Center
05:16PM 42.0378 -103.3997 273° West 139 160 12,000  Climbing Denver Center
05:17PM 42.0472 -103.4533 283° West 126 145 11,900 -180 Descending Denver Center
05:18PM 42.0492 -103.4906 274° West 112 129 11,700  Descending Denver Center
05:19PM 42.0458 -103.5414 265° West 114 131 12,000  Climbing Denver Center
05:20PM 42.0456 -103.5917 270° West 127 146 11,800 -300 Descending Denver Center
05:21PM 42.0553 -103.6503 283° West 140 161 11,400 -240 Descending Denver Center
05:22PM 42.0581 -103.6986 274° West 137 158 11,400 -120 Level Denver Center
05:23PM 42.0586 -103.7547 271° West 135 155 11,200 -240 Descending Denver Center
05:24PM 42.0633 -103.8072 277° West 141 162 11,000 -120 Descending Denver Center
05:25PM 42.0719 -103.8683 281° West 146 168 11,000  Level Denver Center
05:26PM 42.0769 -103.9208 277° West 147 169 11,000  Level Denver Center
05:27PM 42.0819 -103.9725 277° West 147 169 11,000  Level Denver Center
05:28PM 42.0897 -104.0331 280° West 147 169 11,000  Level Denver Center
05:29PM 42.0947 -104.0847 277° West 146 168 11,000  Level Denver Center
05:30PM 42.1011 -104.1453 278° West 146 168 11,000  Level Denver Center
05:31PM 42.1061 -104.1961 278° West 145 167 11,000  Level Denver Center
05:32PM 42.1147 -104.2561 281° West 145 167 11,000 180 Level Denver Center
05:33PM 42.1192 -104.3050 277° West 142 163 11,400 300 Climbing Denver Center
05:34PM 42.1239 -104.3528 278° West 128 147 11,700 240 Climbing Denver Center
05:35PM 42.1281 -104.3914 278° West 117 135 12,000 120 Climbing Denver Center
05:36PM 42.1339 -104.4408 279° West 116 133 12,000  Level Denver Center
05:37PM 42.1383 -104.4861 278° West 122 140 12,000  Level Denver Center
05:38PM 42.1497 -104.5392 286° West 128 147 12,000  Level Denver Center
05:40PM 42.1642 -104.5819 295° West 130 150 12,000  Level Denver Center
05:41PM 42.1750 -104.6250 289° West 129 148 12,000  Level Denver Center
05:42PM 42.1875 -104.6792 287° West 131 151 12,000  Level Denver Center
05:43PM 42.1978 -104.7247 287° West 133 153 12,000  Level Denver Center
05:44PM 42.2106 -104.7833 286° West 130 150 12,000  Level Denver Center
05:45PM 42.2222 -104.8369 286° West 131 151 12,000  Level Denver Center
05:46PM 42.2314 -104.8844 285° West 134 154 12,000 60 Level Denver Center
05:47PM 42.2394 -104.9317 283° West 135 155 12,200 120 Climbing Denver Center
05:48PM 42.2494 -104.9872 284° West 135 155 12,300  Climbing Denver Center
05:49PM 42.2664 -105.0464 291° West 133 153 12,300  Level Denver Center
05:50PM 42.2822 -105.0897 296° West 133 153 12,400  Climbing Denver Center
05:51PM 42.3050 -105.1303 307° West 137 158 12,300 -60 Descending Denver Center
05:53PM 42.3353 -105.1761 312° West 143 165 12,300  Level Denver Center
05:54PM 42.3758 -105.2250 318° Northwest 151 174 12,300  Level Denver Center
05:55PM 42.4025 -105.2672 311° West 153 176 12,300  Level Denver Center
05:56PM 42.4344 -105.3142 313° West 152 175 12,300  Level Denver Center
05:57PM 42.4644 -105.3567 314° West 156 180 12,300 -180 Level Denver Center
05:58PM 42.5022 -105.4106 314° West 166 191 12,000 -180 Descending Denver Center
05:59PM 42.5372 -105.4608 313° West 166 191 12,000  Level Denver Center
06:00PM 42.5706 -105.5103 312° West 162 186 12,000  Level Denver Center
06:01PM 42.5933 -105.5458 311° West 160 184 12,000  Level Denver Center
06:02PM 42.6303 -105.5986 314° West 154 177 12,000  Level Denver Center
06:03PM 42.6583 -105.6347 317° Northwest 150 173 12,000  Level Denver Center
06:04PM 42.6872 -105.6822 310° West 147 169 12,000  Level Denver Center
06:05PM 42.7139 -105.7206 313° West 146 168 12,000  Level Denver Center
06:06PM 42.7467 -105.7672 314° West 148 170 12,000  Level Denver Center
06:07PM 42.7767 -105.8092 314° West 156 180 12,000  Level Denver Center
06:08PM 42.8089 -105.8581 312° West 157 181 12,000  Level Denver Center
06:09PM 42.8364 -105.8997 312° West 156 180 12,000  Level Denver Center
06:10PM 42.8644 -105.9389 314° West 153 176 12,000  Level Denver Center
06:11PM 42.8972 -105.9886 312° West 155 178 12,000  Level Denver Center
06:12PM 42.9264 -106.0269 316° Northwest 154 177 12,000  Level Denver Center
06:13PM 42.9594 -106.0792 311° West 159 183 12,000  Level Denver Center
06:14PM 42.9886 -106.1194 315° West 157 181 12,000  Level Denver Center
06:15PM 43.0217 -106.1667 314° West 155 178 12,000  Level Denver Center
06:17PM 43.0492 -106.2075 313° West 154 177 12,000  Level Denver Center
06:18PM 43.0797 -106.2581 310° West 154 177 12,000  Level Denver Center
06:19PM 43.1003 -106.3028 302° West 152 175 12,000  Level Denver Center
06:20PM 43.0922 -106.3672 260° West 153 176 12,000  Level Denver Center
06:21PM 43.0928 -106.4217 271° West 151 174 12,000  Level Denver Center
06:22PM 43.0925 -106.4758 270° West 150 173 12,000  Level Denver Center
06:23PM 43.0917 -106.5394 269° West 150 173 12,000  Level Denver Center
06:24PM 43.0925 -106.6019 271° West 149 171 12,000  Level Denver Center
06:25PM 43.0939 -106.6458 272° West 148 170 12,000  Level Denver Center
06:26PM 43.0917 -106.7178 268° West 148 170 12,000  Level Denver Center
06:27PM 43.0928 -106.7747 272° West 153 176 12,000  Level Denver Center
06:28PM 43.0917 -106.8314 268° West 155 178 12,000  Level Denver Center
06:29PM 43.0914 -106.8933 270° West 151 174 12,000  Level Denver Center
06:30PM 43.0914 -106.9478 270° West 148 170 12,000  Level Salt Lake Center
06:31PM 43.0911 -106.9981 270° West 145 167 12,000  Level Salt Lake Center
06:32PM 43.0894 -107.0597 268° West 143 165 12,000 -60 Level Salt Lake Center
06:33PM 43.0894 -107.1158 270° West 147 169 11,900  Descending Salt Lake Center
06:34PM 43.0867 -107.1769 266° West 148 170 12,000  Climbing Denver Center
06:35PM 43.0878 -107.2358 272° West 143 165 12,000  Level Denver Center
06:36PM 43.0850 -107.2856 266° West 139 160 12,000  Level Denver Center
06:37PM 43.0867 -107.3367 273° West 139 160 12,000  Level Denver Center
06:38PM 43.0853 -107.3883 268° West 139 160 12,000  Level Salt Lake Center
06:39PM 43.0842 -107.4461 269° West 140 161 12,000  Level Salt Lake Center
06:40PM 43.0836 -107.4967 269° West 140 161 12,000  Level Salt Lake Center
06:41PM 43.0853 -107.5575 272° West 141 162 12,000  Level Salt Lake Center
06:42PM 43.0836 -107.6072 267° West 141 162 12,000  Level Salt Lake Center
06:43PM 43.0814 -107.6658 267° West 139 160 12,000  Level Salt Lake Center
06:44PM 43.0819 -107.7158 271° West 138 159 12,000  Level Salt Lake Center
06:45PM 43.0778 -107.7775 265° West 141 162 12,000  Level Salt Lake Center
06:46PM 43.0786 -107.8300 271° West 143 165 12,000  Level Salt Lake Center
06:47PM 43.0794 -107.8844 271° West 145 167 12,100  Climbing Salt Lake Center
06:48PM 43.0794 -107.9461 270° West 146 168 12,000 -60 Descending Salt Lake Center
06:49PM 43.0786 -108.0006 269° West 148 170 12,000  Level Salt Lake Center
06:50PM 43.0747 -108.0617 265° West 147 169 12,000  Level Salt Lake Center
06:51PM 43.0744 -108.1108 270° West 143 165 12,000  Level Salt Lake Center
06:52PM 43.0736 -108.1650 269° West 136 157 12,000  Level Salt Lake Center
06:54PM 43.0719 -108.2122 267° West 133 153 12,000  Level Salt Lake Center
06:55PM 43.0717 -108.2592 270° West 131 151 12,000  Level Salt Lake Center
06:56PM 43.0708 -108.3150 269° West 131 151 12,000 -60 Level Salt Lake Center
06:57PM 43.0700 -108.3614 269° West 130 150 11,900  Descending Salt Lake Center
06:58PM 43.0672 -108.4183 266° West 131 151 12,000  Climbing Salt Lake Center
06:59PM 43.0747 -108.4764 280° West 153 176 12,000  Level Salt Lake Center
07:00PM 43.1003 -108.5328 302° West 156 180 12,000  Level Salt Lake Center
07:01PM 43.1164 -108.5842 293° West 157 181 12,000  Level Salt Lake Center
07:03PM 43.1478 -108.6767 295° West  Level FlightAware Approximate
07:10PM 43.2921 -109.0142 301° West  Level FlightAware Approximate
07:11PM 43.3126 -109.0623 300° West  Level FlightAware Approximate
07:12PM 43.3332 -109.1105 300° West  Level FlightAware Approximate
07:13PM 43.3536 -109.1587 299° West  Level FlightAware Approximate
07:14PM 43.3735 -109.2074 299° West  Level FlightAware Approximate
07:15PM 43.3934 -109.2561 299° West  Level FlightAware Approximate
07:16PM 43.4133 -109.3048 299° West  Level FlightAware Approximate
07:17PM 43.4332 -109.3536 299° West  Level FlightAware Approximate
07:18PM 43.4531 -109.4023 299° West  Level FlightAware Approximate
07:19PM 43.4729 -109.4511 299° West  Level FlightAware Approximate
07:20PM 43.4927 -109.5000 299° West  Level FlightAware Approximate
07:21PM 43.5125 -109.5489 299° West  Level FlightAware Approximate
07:22PM 43.5323 -109.5978 299° West  Level FlightAware Approximate
07:23PM 43.5520 -109.6467 299° West  Level FlightAware Approximate
07:24PM 43.5718 -109.6957 299° West  Level FlightAware Approximate
07:25PM 43.5915 -109.7447 299° West  Level FlightAware Approximate
07:26PM 43.6111 -109.7938 299° West  Level FlightAware Approximate
07:27PM 43.6308 -109.8428 299° West  Level FlightAware Approximate
07:28PM 43.6505 -109.8919 299° West  Level FlightAware Approximate
07:29PM 43.6701 -109.9411 299° West  Level FlightAware Approximate
07:30PM 43.6897 -109.9902 299° West  Level FlightAware Approximate
07:31PM 43.7093 -110.0395 299° West  Level FlightAware Approximate
07:32PM 43.7288 -110.0887 299° West  Level FlightAware Approximate
07:33PM 43.7474 -110.1386 297° West  Level FlightAware Approximate
07:34PM 43.7657 -110.1888 297° West  Level FlightAware Approximate
07:35PM 43.7839 -110.2391 297° West  Level FlightAware Approximate
07:36PM 43.8020 -110.2894 295° West  Level FlightAware Approximate
07:37PM 43.8129 -110.3393 229° Southwest  Level FlightAware Approximate
07:38PM 43.7864 -110.3819 229° Southwest  Level FlightAware Approximate
07:39PM 43.7598 -110.4244 229° Southwest  Level FlightAware Approximate
07:40PM 43.7332 -110.4669 235° Southwest  Level FlightAware Approximate
07:41PM 43.7102 -110.5132 235° Southwest  Level FlightAware Approximate
07:42PM 43.6871 -110.5594 235° Southwest  Level FlightAware Approximate
07:43PM 43.6640 -110.6056 235° Southwest  Level FlightAware Approximate
07:44PM 43.6409 -110.6517 235° Southwest  Level FlightAware Approximate
07:45PM 43.6178 -110.6978 235° Southwest  Level FlightAware Approximate
07:46PM 43.6000 -110.7333 235° Southwest  Level FlightAware Approximate
07:47PM 43.6073 -110.7377 235° Southwest  Level Estimated
07:48PM 43.6073 -110.7377 235° Southwest  Level Estimated
07:49PM 43.6073 -110.7377 235° Southwest  Level Estimated
07:50PM 43.6073 -110.7377 235° Southwest  Level Estimated
07:51PM 43.6073 -110.7377 235° Southwest  Level Estimated
07:52PM 43.6073 -110.7377 235° Southwest  Level Estimated
07:53PM 43.6073 -110.7377 235° Southwest  Level Estimated
07:54PM 43.6073 -110.7377 235° Southwest  Level Estimated
07:55PM 43.6073 -110.7377 235° Southwest  Level Estimated
07:56PM 43.6073 -110.7377 235° Southwest  Level Estimated
07:57PM 43.6073 -110.7377 235° Southwest  Level Estimated
07:58PM 43.6073 -110.7377 235° Southwest  Level Estimated